Time;durP1;ratioP1;P1;durP2;ratioP2;P2;SDS_P1;SDS_P2;PMS_P1;PMS_P2;Temp;Humidity;BMP_temperature;BMP_pressure;BME280_temperature;BME280_humidity;BME280_pressure;Samples;Min_cycle;Max_cycle;Signal;HPM_P1;HPM_P2
2022/02/03 00:01:28;;;;;;;2.63;2.20;;;-8.00;99.90;;;;;;5030375;28;20053;-74
2022/02/03 00:04:04;;;;;;;3.75;2.33;;;-8.00;99.90;;;;;;5031693;28;20108;-73
2022/02/03 00:06:47;;;;;;;3.83;2.50;;;-8.10;99.90;;;;;;5031505;28;20033;-73
2022/02/03 00:09:49;;;;;;;3.85;2.30;;;-8.10;99.90;;;;;;5031811;28;20025;-73
2022/02/03 00:25:31;;;;;;;2.05;1.85;;;-8.20;99.90;;;;;;5035213;28;20045;-73
2022/02/03 00:36:27;;;;;;;3.63;2.33;;;-8.20;99.90;;;;;;4973660;28;20594;-73
2022/02/03 00:50:04;;;;;;;3.42;2.53;;;-8.20;99.90;;;;;;5034524;28;20033;-72
2022/02/03 00:52:35;;;;;;;2.83;2.40;;;-8.20;99.90;;;;;;5034447;28;20029;-72
2022/02/03 00:55:03;;;;;;;3.30;2.22;;;-8.20;99.90;;;;;;5034657;28;20541;-72
2022/02/03 00:57:34;;;;;;;3.67;2.55;;;-8.20;99.90;;;;;;5034293;28;20031;-72
2022/02/03 01:00:10;;;;;;;5.90;2.33;;;-8.30;99.90;;;;;;5034289;28;20117;-73
2022/02/03 01:02:41;;;;;;;2.25;2.00;;;-8.20;99.90;;;;;;5034638;28;20037;-73
2022/02/03 01:05:08;;;;;;;2.10;1.90;;;-8.20;99.90;;;;;;5034086;28;20041;-72
2022/02/03 01:07:36;;;;;;;3.95;2.25;;;-8.20;99.90;;;;;;5034204;28;20083;-73
2022/02/03 01:10:10;;;;;;;3.25;2.60;;;-8.20;99.90;;;;;;5034304;28;20025;-72
2022/02/03 01:13:31;;;;;;;2.17;1.98;;;-8.30;99.90;;;;;;5034018;28;20017;-72
2022/02/03 01:15:39;;;;;;;3.00;2.17;;;-8.40;99.90;;;;;;5025847;28;20036;-75
2022/02/03 01:37:08;;;;;;;3.20;2.53;;;-8.30;99.90;;;;;;5033764;28;20033;-75
2022/02/03 01:45:18;;;;;;;3.35;2.33;;;-8.30;99.90;;;;;;5033521;28;20031;-78
2022/02/03 01:52:46;;;;;;;4.18;2.47;;;-8.20;99.90;;;;;;5033294;28;20025;-78
2022/02/03 01:55:26;;;;;;;3.53;2.60;;;-8.30;99.90;;;;;;5033298;28;20026;-79
2022/02/03 01:58:09;;;;;;;3.28;2.65;;;-8.30;99.90;;;;;;5033094;28;20477;-77
2022/02/03 02:00:52;;;;;;;3.33;2.50;;;-8.30;99.90;;;;;;5033270;28;20029;-78
2022/02/03 02:03:25;;;;;;;2.42;2.10;;;-8.20;99.90;;;;;;5033135;28;20029;-77
2022/02/03 02:06:09;;;;;;;2.97;2.35;;;-8.20;99.90;;;;;;5033053;28;20052;-77
2022/02/03 02:08:55;;;;;;;2.67;2.10;;;-8.30;99.90;;;;;;5033056;28;20108;-76
2022/02/03 02:15:05;;;;;;;2.78;2.22;;;-8.40;99.90;;;;;;5033017;28;20107;-74
2022/02/03 03:03:17;;;;;;;3.92;2.55;;;-8.40;99.90;;;;;;5031972;28;20022;-74
2022/02/03 03:38:59;;;;;;;2.65;2.30;;;-8.20;99.90;;;;;;4969382;28;20058;-73
2022/02/03 03:41:29;;;;;;;3.92;2.40;;;-8.20;99.90;;;;;;4972866;28;20566;-74
2022/02/03 03:44:05;;;;;;;3.08;2.17;;;-8.20;99.90;;;;;;4973195;28;20114;-74
2022/02/03 03:46:45;;;;;;;3.42;2.58;;;-8.30;99.90;;;;;;4973381;28;20436;-74
2022/02/03 03:49:37;;;;;;;3.47;2.25;;;-8.20;99.90;;;;;;4975945;28;20500;-73
2022/02/03 03:52:08;;;;;;;7.40;2.35;;;-8.20;99.90;;;;;;4977115;28;20088;-72
2022/02/03 03:54:39;;;;;;;2.25;2.05;;;-8.30;99.90;;;;;;4976819;28;20022;-75
2022/02/03 03:57:31;;;;;;;2.33;2.05;;;-8.30;99.90;;;;;;4976930;28;20031;-75
2022/02/03 04:00:45;;;;;;;2.88;1.95;;;-8.30;99.90;;;;;;4976760;28;20033;-78
2022/02/03 04:33:53;;;;;;;5.00;2.40;;;-9.00;99.90;;;;;;4975968;28;20031;-73
2022/02/03 04:51:30;;;;;;;4.53;2.10;;;-9.20;99.90;;;;;;4956452;29;20050;-79
2022/02/03 05:11:34;;;;;;;2.72;2.05;;;-9.30;99.90;;;;;;4956245;29;20030;-76
2022/02/03 05:21:00;;;;;;;2.67;2.05;;;-9.10;99.90;;;;;;4947857;29;20507;-77
2022/02/03 05:42:50;;;;;;;2.22;1.90;;;-9.20;99.90;;;;;;4955578;29;20027;-69
2022/02/03 06:06:32;;;;;;;3.22;2.28;;;-9.30;99.90;;;;;;4962687;28;20478;-70
2022/02/03 06:09:20;;;;;;;3.03;2.08;;;-9.30;99.90;;;;;;4957287;28;20019;-79
2022/02/03 06:22:43;;;;;;;5.75;1.98;;;-9.70;99.90;;;;;;4958582;28;20077;-71
2022/02/03 06:27:40;;;;;;;2.95;2.05;;;-9.90;99.80;;;;;;4954479;28;20027;-68
2022/02/03 06:30:08;;;;;;;2.80;1.92;;;-9.80;99.90;;;;;;4954528;28;20122;-68
2022/02/03 06:32:37;;;;;;;3.67;2.42;;;-9.40;99.90;;;;;;4954281;28;20070;-68
2022/02/03 06:35:03;;;;;;;2.20;1.90;;;-9.60;99.90;;;;;;4954451;28;20118;-69
2022/02/03 06:37:29;;;;;;;8.75;2.50;;;-9.70;99.90;;;;;;4954135;28;20126;-68
2022/02/03 06:39:55;;;;;;;2.63;2.22;;;-9.90;99.90;;;;;;4954547;28;20149;-69
2022/02/03 06:42:21;;;;;;;7.05;2.35;;;-10.10;99.90;;;;;;4954253;28;20440;-69
2022/02/03 06:44:54;;;;;;;3.30;2.15;;;-10.30;99.90;;;;;;4954271;28;20039;-69
2022/02/03 06:47:29;;;;;;;4.03;2.67;;;-10.40;99.90;;;;;;4954223;28;20037;-68
2022/02/03 06:53:11;;;;;;;4.35;2.30;;;-9.50;99.90;;;;;;4913691;29;20039;-69
2022/02/03 06:58:14;;;;;;;2.60;2.28;;;-9.70;99.90;;;;;;4954347;28;20027;-69
2022/02/03 07:00:45;;;;;;;2.75;2.50;;;-9.80;99.90;;;;;;4954251;28;20118;-79
2022/02/03 07:03:19;;;;;;;2.78;1.75;;;-9.90;99.90;;;;;;4954322;28;20031;-70
2022/02/03 07:05:45;;;;;;;3.05;2.25;;;-8.70;99.90;;;;;;4954307;28;20043;-70
2022/02/03 07:08:17;;;;;;;2.92;1.95;;;-8.30;99.90;;;;;;4954196;28;20479;-70
2022/02/03 07:10:44;;;;;;;4.82;2.40;;;-8.70;99.90;;;;;;4954039;28;20042;-71
2022/02/03 07:13:10;;;;;;;4.13;2.10;;;-9.10;99.90;;;;;;4954009;28;20097;-70
2022/02/03 07:15:37;;;;;;;3.30;1.90;;;-9.40;99.90;;;;;;4953661;28;20493;-70
2022/02/03 07:18:04;;;;;;;3.22;2.20;;;-9.50;99.90;;;;;;4953705;28;20023;-70
2022/02/03 07:20:30;;;;;;;2.30;1.75;;;-9.70;99.90;;;;;;4953728;28;20031;-70
2022/02/03 07:22:56;;;;;;;3.63;1.55;;;-9.80;99.90;;;;;;4953185;28;20505;-71
2022/02/03 07:25:22;;;;;;;3.30;1.73;;;-9.80;99.90;;;;;;4953934;28;20023;-70
2022/02/03 07:27:48;;;;;;;3.38;2.03;;;-9.90;99.90;;;;;;4953769;28;20375;-71
2022/02/03 07:30:14;;;;;;;2.67;2.10;;;-9.90;99.90;;;;;;4961355;28;20023;-70
2022/02/03 07:32:40;;;;;;;2.78;2.35;;;-10.00;99.90;;;;;;4964000;28;20026;-78
2022/02/03 07:35:08;;;;;;;2.50;1.80;;;-10.20;99.90;;;;;;4962940;28;20027;-81
2022/02/03 07:37:46;;;;;;;2.33;2.13;;;-10.20;99.90;;;;;;4961817;28;20058;-70
2022/02/03 07:40:12;;;;;;;3.35;2.25;;;-10.40;99.90;;;;;;4981268;28;20031;-69
2022/02/03 07:42:39;;;;;;;2.78;1.90;;;-10.50;99.90;;;;;;4961662;28;20019;-72
2022/02/03 07:45:07;;;;;;;2.10;1.70;;;-10.50;99.90;;;;;;4963091;28;20047;-71
2022/02/03 07:47:33;;;;;;;4.03;2.38;;;-10.50;99.90;;;;;;4961009;28;20494;-66
2022/02/03 07:49:59;;;;;;;2.78;2.35;;;-10.60;99.90;;;;;;4953986;28;20082;-66
2022/02/03 07:52:25;;;;;;;2.20;2.00;;;-10.70;99.90;;;;;;4962831;28;20026;-67
2022/02/03 07:54:51;;;;;;;3.33;2.25;;;-10.70;99.90;;;;;;4962137;28;20030;-67
2022/02/03 07:57:22;;;;;;;2.17;1.77;;;-10.70;99.90;;;;;;4969836;28;20042;-68
2022/02/03 07:59:48;;;;;;;1.98;1.77;;;-10.70;99.90;;;;;;4967284;28;20024;-69
2022/02/03 08:02:13;;;;;;;2.72;2.10;;;-10.50;99.90;;;;;;4963315;28;20029;-69
2022/02/03 08:04:45;;;;;;;2.78;1.92;;;-10.50;99.90;;;;;;4971099;28;20031;-68
2022/02/03 08:07:13;;;;;;;2.35;2.00;;;-10.50;99.90;;;;;;4960137;28;20046;-70
2022/02/03 08:12:12;;;;;;;5.03;2.40;;;-10.60;99.90;;;;;;4972630;28;20360;-71
2022/02/03 08:14:46;;;;;;;3.17;2.10;;;-10.70;99.90;;;;;;4962526;28;20419;-70
2022/02/03 08:17:18;;;;;;;5.38;1.90;;;-10.80;99.90;;;;;;4955809;28;20026;-67
2022/02/03 08:22:24;;;;;;;2.30;2.10;;;-10.80;99.90;;;;;;4961194;28;20023;-68
2022/02/03 08:24:54;;;;;;;2.22;1.40;;;-10.90;99.90;;;;;;4963510;28;20035;-66
2022/02/03 08:32:46;;;;;;;2.53;2.08;;;-7.00;99.90;;;;;;4955313;28;20391;-66
2022/02/03 08:37:58;;;;;;;3.17;2.00;;;-8.50;99.90;;;;;;4956452;28;20094;-68
2022/02/03 08:40:32;;;;;;;3.00;2.42;;;-8.90;99.90;;;;;;4956401;28;20037;-70
2022/02/03 08:42:57;;;;;;;3.92;2.13;;;-9.20;99.90;;;;;;4956590;28;20027;-66
2022/02/03 08:45:23;;;;;;;3.22;1.98;;;-9.30;99.90;;;;;;4956039;28;20027;-68
2022/02/03 08:47:50;;;;;;;2.10;1.90;;;-9.20;99.90;;;;;;4970749;28;20086;-68
2022/02/03 08:50:16;;;;;;;2.47;1.95;;;-8.90;99.90;;;;;;4975740;28;20030;-67
2022/02/03 08:52:54;;;;;;;2.60;2.15;;;-9.00;99.90;;;;;;4972399;28;20132;-67
2022/02/03 09:36:15;;;;;;;4.05;2.72;;;-10.50;99.90;;;;;;4975150;28;20529;-66
2022/02/03 09:57:34;;;;;;;3.83;2.60;;;-9.60;99.90;;;;;;4955762;29;20382;-66
2022/02/03 10:00:39;;;;;;;4.20;2.72;;;-9.70;99.90;;;;;;4955026;28;20030;-66
2022/02/03 10:03:13;;;;;;;7.75;3.97;;;-9.90;99.90;;;;;;4954997;28;20487;-66
2022/02/03 10:06:06;;;;;;;7.82;2.70;;;-9.90;99.90;;;;;;4954839;28;20039;-66
2022/02/03 10:08:33;;;;;;;3.80;2.50;;;-10.00;99.90;;;;;;4954991;28;20039;-66
2022/02/03 10:11:19;;;;;;;5.75;3.42;;;-8.60;99.90;;;;;;4970966;28;20070;-66
2022/02/03 10:13:53;;;;;;;5.57;2.50;;;-8.60;99.90;;;;;;4964820;28;20035;-66
2022/02/03 10:16:31;;;;;;;3.25;2.40;;;-9.00;99.90;;;;;;4935609;29;20035;-66
2022/02/03 10:19:19;;;;;;;5.47;2.58;;;-9.40;99.90;;;;;;4936192;29;20452;-66
2022/02/03 10:21:48;;;;;;;3.53;2.38;;;-9.60;99.90;;;;;;4935493;29;20023;-66
2022/02/03 10:24:19;;;;;;;2.88;2.20;;;-9.70;99.90;;;;;;4970302;28;20018;-66
2022/02/03 10:26:51;;;;;;;6.65;2.58;;;-9.80;99.90;;;;;;4973494;28;20031;-66
2022/02/03 10:29:25;;;;;;;2.83;2.28;;;-9.90;99.90;;;;;;4959749;28;20419;-66
2022/02/03 10:31:51;;;;;;;3.95;2.70;;;-10.00;99.90;;;;;;4954793;28;20035;-66
2022/02/03 10:34:24;;;;;;;2.50;2.30;;;-10.10;99.90;;;;;;4953837;28;20206;-66
2022/02/03 10:37:02;;;;;;;4.13;2.50;;;-10.10;99.90;;;;;;4954033;28;20103;-66
2022/02/03 11:02:35;;;;;;;3.25;2.40;;;-10.00;99.90;;;;;;4957315;28;20050;-66
2022/02/03 11:05:27;;;;;;;3.65;2.58;;;-10.00;99.90;;;;;;4954043;28;20051;-65
2022/02/03 11:08:32;;;;;;;6.07;2.45;;;-10.00;99.90;;;;;;4954064;28;20035;-68
2022/02/03 11:10:56;;;;;;;4.07;2.08;;;-10.00;99.90;;;;;;4953634;29;20042;-66
2022/02/03 11:13:25;;;;;;;3.90;2.47;;;-10.00;99.90;;;;;;4954314;28;20035;-66
2022/02/03 11:15:53;;;;;;;4.47;2.83;;;-10.00;99.90;;;;;;4953959;28;20079;-66
2022/02/03 11:18:24;;;;;;;5.18;3.20;;;-10.10;99.90;;;;;;4953876;28;20023;-66
2022/02/03 11:20:50;;;;;;;6.40;3.85;;;-10.10;99.90;;;;;;4953644;28;20038;-66
2022/02/03 11:31:12;;;;;;;3.75;2.72;;;-10.00;99.90;;;;;;4957222;28;20387;-66
2022/02/03 11:58:17;;;;;;;4.30;2.53;;;-9.20;99.90;;;;;;4934837;29;20491;-67
2022/02/03 12:26:14;;;;;;;;;;;-9.70;99.90;;;;;;4938431;29;20031;-66
2022/02/03 12:31:37;;;;;;;9.75;3.78;;;-9.80;99.90;;;;;;4938095;29;20032;-66
2022/02/03 12:39:44;;;;;;;10.70;4.07;;;-9.80;99.90;;;;;;4937491;29;20111;-65
2022/02/03 12:42:53;;;;;;;10.40;4.20;;;-9.90;99.90;;;;;;4937421;29;20027;-65
2022/02/03 12:45:45;;;;;;;7.30;3.70;;;-9.90;99.90;;;;;;4937826;29;20058;-65
2022/02/03 12:48:05;;;;;;;4.65;3.10;;;-10.00;99.90;;;;;;4935976;29;20475;-65
2022/02/03 12:50:33;;;;;;;6.75;3.38;;;-10.10;99.90;;;;;;4937306;29;20032;-65
2022/02/03 12:53:01;;;;;;;5.15;3.08;;;-10.00;99.90;;;;;;4937010;29;20023;-65
2022/02/03 12:55:33;;;;;;;5.07;3.17;;;-10.00;99.90;;;;;;4937302;29;20027;-65
2022/02/03 12:58:04;;;;;;;4.25;2.65;;;-10.00;99.90;;;;;;4937484;29;20539;-65
2022/02/03 13:00:44;;;;;;;4.75;2.80;;;-10.10;99.90;;;;;;4951755;29;20028;-65
2022/02/03 13:03:11;;;;;;;4.07;2.83;;;-10.20;99.90;;;;;;4937120;29;20435;-65
2022/02/03 13:05:39;;;;;;;4.22;2.70;;;-10.20;99.90;;;;;;4936520;29;20299;-65
2022/02/03 13:08:07;;;;;;;4.68;2.53;;;-10.20;99.90;;;;;;4937085;29;20028;-65
2022/02/03 13:10:36;;;;;;;3.45;2.60;;;-10.10;99.90;;;;;;4936546;29;20028;-65
2022/02/03 13:13:10;;;;;;;5.13;2.60;;;-10.10;99.90;;;;;;4937034;29;20039;-65
2022/02/03 13:15:42;;;;;;;4.22;2.70;;;-10.10;99.90;;;;;;4936519;29;20491;-65
2022/02/03 13:18:31;;;;;;;2.40;2.15;;;-10.10;99.90;;;;;;4937089;29;20106;-65
2022/02/03 13:21:05;;;;;;;3.70;2.67;;;-10.20;99.90;;;;;;4935523;29;20078;-65
2022/02/03 13:23:34;;;;;;;2.58;2.28;;;-10.20;99.90;;;;;;4936727;29;20066;-66
2022/02/03 13:26:11;;;;;;;3.88;2.38;;;-10.10;99.90;;;;;;4936543;29;20063;-65
2022/02/03 13:28:48;;;;;;;3.10;2.05;;;-10.00;99.90;;;;;;4936523;29;20023;-65
2022/02/03 13:31:24;;;;;;;3.85;2.40;;;-10.10;99.90;;;;;;4936694;29;20047;-65
2022/02/03 13:33:59;;;;;;;3.28;2.30;;;-10.20;99.90;;;;;;4936496;29;20472;-65
2022/02/03 13:36:31;;;;;;;3.67;2.08;;;-10.10;99.90;;;;;;4936580;29;20039;-65
2022/02/03 13:39:05;;;;;;;2.53;2.15;;;-10.10;99.90;;;;;;4936287;29;20047;-65
2022/02/03 13:41:35;;;;;;;3.10;2.30;;;-10.00;99.90;;;;;;4936442;29;20056;-65
2022/02/03 13:44:05;;;;;;;2.53;2.17;;;-9.90;99.90;;;;;;4936379;29;20472;-65
2022/02/03 13:46:34;;;;;;;3.20;2.10;;;-9.90;99.90;;;;;;4936237;29;20039;-65
2022/02/03 13:49:00;;;;;;;3.60;2.20;;;-9.80;99.90;;;;;;4936658;29;20103;-65
2022/02/03 13:51:29;;;;;;;2.58;2.20;;;-9.70;99.90;;;;;;4936556;29;20500;-65
2022/02/03 13:54:14;;;;;;;4.45;2.47;;;-9.70;99.90;;;;;;4936107;29;20102;-65
2022/02/03 14:19:40;;;;;;;2.85;2.08;;;-10.30;97.60;;;;;;4936025;29;20031;-65
2022/02/03 14:22:03;;;;;;;3.10;2.00;;;-10.30;96.70;;;;;;4935642;29;20032;-65
2022/02/03 14:27:30;;;;;;;5.18;3.35;;;-10.30;97.20;;;;;;4923701;29;20139;-65
2022/02/03 14:30:13;;;;;;;4.13;2.95;;;-10.40;97.60;;;;;;4935303;29;20113;-65
2022/02/03 14:32:39;;;;;;;5.95;2.55;;;-10.50;98.00;;;;;;4935225;29;20024;-65
2022/02/03 14:35:07;;;;;;;2.70;1.85;;;-10.50;98.20;;;;;;4935650;29;20099;-65
2022/02/03 14:42:31;;;;;;;5.72;3.40;;;-10.60;96.20;;;;;;4935266;29;20024;-65
2022/02/03 14:44:57;;;;;;;5.38;2.53;;;-10.60;96.20;;;;;;4935025;29;20471;-65
2022/02/03 14:47:27;;;;;;;2.45;2.03;;;-10.60;94.90;;;;;;4935087;29;20043;-65
2022/02/03 14:49:54;;;;;;;3.08;2.20;;;-10.70;94.50;;;;;;4935045;29;20019;-66
2022/02/03 15:00:16;;;;;;;3.80;2.20;;;-9.30;99.90;;;;;;4935120;29;20035;-67
2022/02/03 15:02:42;;;;;;;3.55;2.10;;;-9.70;99.90;;;;;;4935071;29;20032;-67
2022/02/03 15:05:12;;;;;;;1.85;1.75;;;-9.30;99.90;;;;;;4935179;29;20086;-67
2022/02/03 15:07:43;;;;;;;5.20;2.80;;;-9.00;99.90;;;;;;4935080;29;20025;-66
2022/02/03 15:15:03;;;;;;;4.13;2.80;;;-9.90;99.90;;;;;;4938340;28;20047;-66
2022/02/03 15:17:33;;;;;;;2.55;2.10;;;-10.00;99.90;;;;;;4973133;28;20014;-68
2022/02/03 15:19:59;;;;;;;3.80;2.38;;;-10.20;99.90;;;;;;4954157;28;20031;-68
2022/02/03 15:22:26;;;;;;;3.28;2.38;;;-10.20;99.90;;;;;;4951149;29;20047;-67
2022/02/03 15:24:51;;;;;;;2.90;2.13;;;-10.30;99.90;;;;;;4953443;28;20035;-67
2022/02/03 15:27:17;;;;;;;5.78;2.60;;;-10.50;99.90;;;;;;4953592;28;20031;-67
2022/02/03 15:29:49;;;;;;;3.78;2.40;;;-10.50;99.90;;;;;;4953418;28;20383;-67
2022/02/03 15:32:15;;;;;;;2.85;2.25;;;-10.60;99.90;;;;;;4953923;28;20435;-67
2022/02/03 15:34:42;;;;;;;0.80;0.80;;;-10.60;99.90;;;;;;4953362;28;20019;-69
2022/02/03 15:37:15;;;;;;;4.60;2.97;;;-5.70;99.90;;;;;;4953403;28;20130;-68
2022/02/03 15:39:49;;;;;;;4.43;3.00;;;-0.10;99.90;;;;;;4953680;28;20038;-68
2022/02/03 15:42:25;;;;;;;3.75;2.45;;;-1.20;99.90;;;;;;4953459;28;20019;-67
2022/02/03 15:44:53;;;;;;;2.90;2.08;;;-3.20;99.90;;;;;;4955579;28;20038;-69
2022/02/03 15:47:35;;;;;;;4.75;2.90;;;-4.80;99.90;;;;;;4957579;28;20027;-68
2022/02/03 16:03:50;;;;;;;4.70;2.60;;;-8.80;99.90;;;;;;4957310;28;20468;-69
2022/02/03 16:16:52;;;;;;;4.10;2.63;;;-9.30;99.90;;;;;;4965650;28;20030;-69
2022/02/03 16:19:21;;;;;;;3.75;2.60;;;-9.50;99.90;;;;;;4966337;28;20027;-69
2022/02/03 16:54:15;;;;;;;9.05;3.30;;;-10.70;94.70;;;;;;4952121;28;20070;-68
2022/02/03 16:56:42;;;;;;;7.25;4.05;;;-10.80;94.60;;;;;;4956313;28;20104;-68
2022/02/03 16:59:08;;;;;;;6.80;3.33;;;-10.80;94.30;;;;;;4956613;28;20024;-68
2022/02/03 17:01:33;;;;;;;7.25;3.00;;;-10.90;93.20;;;;;;4957013;28;20035;-73
2022/02/03 17:03:59;;;;;;;7.60;3.10;;;-11.00;92.90;;;;;;4956737;29;20027;-69
2022/02/03 17:06:25;;;;;;;8.38;3.25;;;-11.20;92.40;;;;;;4956719;29;20067;-68
2022/02/03 17:08:50;;;;;;;5.70;3.42;;;-11.20;92.70;;;;;;4956776;28;20027;-69
2022/02/03 17:11:17;;;;;;;8.93;3.72;;;-11.30;92.90;;;;;;4956021;29;20027;-68
2022/02/03 17:13:42;;;;;;;5.13;2.97;;;-11.40;92.70;;;;;;4956258;29;20031;-68
2022/02/03 17:16:11;;;;;;;10.48;3.80;;;-11.40;92.40;;;;;;4962280;28;20096;-69
2022/02/03 17:18:37;;;;;;;6.30;3.30;;;-11.50;92.50;;;;;;4975334;28;20019;-70
2022/02/03 17:21:03;;;;;;;5.82;3.63;;;-11.50;92.50;;;;;;4975163;28;20548;-74
2022/02/03 17:23:29;;;;;;;6.72;3.55;;;-11.60;92.10;;;;;;4975300;28;20019;-73
2022/02/03 17:28:45;;;;;;;13.15;5.30;;;-11.00;99.90;;;;;;4975181;28;20429;-68
2022/02/03 17:31:47;;;;;;;10.35;4.38;;;-11.10;99.10;;;;;;4975449;28;20394;-65
2022/02/03 18:07:22;;;;;;;3.90;2.75;;;-12.90;96.20;;;;;;4973785;28;20126;-66
2022/02/03 18:51:45;;;;;;;5.30;3.20;;;-12.70;98.60;;;;;;4973964;28;20090;-66
2022/02/03 18:54:29;;;;;;;6.03;2.80;;;-12.80;96.90;;;;;;4973972;28;20031;-66
2022/02/03 18:57:04;;;;;;;3.13;2.40;;;-12.90;95.90;;;;;;4973419;28;20038;-66
2022/02/03 19:02:50;;;;;;;4.60;2.50;;;-13.10;95.80;;;;;;4973631;28;20031;-66
2022/02/03 19:27:42;;;;;;;4.95;2.92;;;-13.20;95.60;;;;;;4967465;28;20045;-66
2022/02/03 19:58:35;;;;;;;2.75;1.98;;;-13.90;95.50;;;;;;4973249;28;20026;-66
2022/02/03 20:03:28;;;;;;;2.92;2.53;;;-14.10;96.10;;;;;;4972930;28;20047;-66
2022/02/03 20:06:11;;;;;;;4.45;2.47;;;-14.10;96.30;;;;;;4972502;28;20096;-66
2022/02/03 20:09:25;;;;;;;3.30;2.80;;;-14.00;96.60;;;;;;4973124;28;20039;-66
2022/02/03 20:11:28;;;;;;;4.47;2.42;;;-13.90;96.90;;;;;;4969586;28;20106;-68
2022/02/03 20:13:53;;;;;;;3.28;2.45;;;-13.90;96.70;;;;;;4972628;28;20034;-68
2022/02/03 20:16:22;;;;;;;4.70;2.75;;;-13.80;96.50;;;;;;4972488;28;20030;-68
2022/02/03 20:18:48;;;;;;;5.05;3.08;;;-13.80;96.40;;;;;;4972559;28;20498;-68
2022/02/03 20:21:13;;;;;;;6.07;2.92;;;-13.80;96.00;;;;;;4971172;28;20034;-68
2022/02/03 20:23:43;;;;;;;4.68;3.00;;;-13.40;99.90;;;;;;4972962;28;20041;-68
2022/02/03 20:26:11;;;;;;;4.30;3.05;;;-13.00;99.90;;;;;;4972514;28;20657;-67
2022/02/03 20:28:38;;;;;;;5.60;3.58;;;-12.30;99.90;;;;;;4972729;28;20035;-67
2022/02/03 20:31:04;;;;;;;4.20;2.92;;;-12.50;99.90;;;;;;4974961;28;20034;-69
2022/02/03 20:33:30;;;;;;;3.78;2.70;;;-12.90;99.90;;;;;;4976448;28;20050;-67
2022/02/03 20:35:56;;;;;;;4.32;2.58;;;-13.30;99.90;;;;;;4975865;28;20478;-67
2022/02/03 20:38:22;;;;;;;7.60;3.88;;;-13.50;99.90;;;;;;4975964;28;20047;-67
2022/02/03 20:40:48;;;;;;;6.38;3.92;;;-13.60;99.90;;;;;;4976030;28;20037;-68
2022/02/03 20:43:14;;;;;;;4.55;2.65;;;-13.60;99.90;;;;;;4975867;28;20073;-68
2022/02/03 20:45:41;;;;;;;4.22;2.95;;;-13.60;99.90;;;;;;4975848;28;20026;-68
2022/02/03 20:48:07;;;;;;;4.03;2.75;;;-13.70;99.90;;;;;;4975971;28;20031;-68
2022/02/03 20:50:38;;;;;;;5.00;2.70;;;-13.70;99.90;;;;;;4976009;28;20502;-68
2022/02/03 20:53:07;;;;;;;3.97;2.55;;;-13.70;99.50;;;;;;4976096;28;20037;-68
2022/02/03 20:55:33;;;;;;;3.67;2.50;;;-13.70;99.60;;;;;;4976083;28;20035;-67
2022/02/03 20:57:59;;;;;;;2.22;1.92;;;-13.70;99.40;;;;;;4975744;28;20022;-68
2022/02/03 21:00:31;;;;;;;6.63;3.10;;;-13.70;98.60;;;;;;4975741;28;20039;-66
2022/02/03 21:03:03;;;;;;;3.72;2.33;;;-13.70;98.30;;;;;;4975588;28;20033;-68
2022/02/03 21:05:28;;;;;;;3.08;2.15;;;-13.60;98.50;;;;;;4975428;28;20033;-65
2022/02/03 21:07:54;;;;;;;3.13;2.25;;;-13.40;99.90;;;;;;4975686;28;20038;-64
2022/02/03 21:10:25;;;;;;;3.55;2.72;;;-11.30;99.90;;;;;;4974877;28;20026;-66
2022/02/03 21:12:54;;;;;;;4.15;2.92;;;-11.10;99.90;;;;;;4975582;28;20441;-66
2022/02/03 21:15:24;;;;;;;3.85;2.40;;;-11.90;99.90;;;;;;4975698;28;20425;-66
2022/02/03 21:17:52;;;;;;;9.45;4.80;;;-12.60;99.90;;;;;;4974130;28;20439;-66
2022/02/03 21:20:20;;;;;;;5.70;3.50;;;-13.10;99.90;;;;;;4975472;28;20430;-65
2022/02/03 21:22:46;;;;;;;3.78;2.45;;;-13.40;99.90;;;;;;4975274;28;20015;-64
2022/02/03 21:25:22;;;;;;;2.92;2.38;;;-13.60;99.90;;;;;;4975034;28;20034;-64
2022/02/03 21:27:50;;;;;;;2.83;2.40;;;-13.70;99.90;;;;;;4975334;28;20026;-64
2022/02/03 21:30:18;;;;;;;5.45;2.88;;;-13.90;99.20;;;;;;4974975;28;20037;-64
2022/02/03 21:32:44;;;;;;;3.35;2.42;;;-14.00;98.60;;;;;;4975133;28;20022;-64
2022/02/03 21:35:10;;;;;;;5.70;2.67;;;-14.10;98.40;;;;;;4974901;28;20034;-64
2022/02/03 21:37:37;;;;;;;2.85;2.50;;;-14.20;98.40;;;;;;4974847;28;20137;-64
2022/02/03 21:40:05;;;;;;;3.35;2.50;;;-14.20;98.60;;;;;;4975099;28;20085;-64
2022/02/03 21:42:31;;;;;;;3.88;2.47;;;-14.20;98.90;;;;;;4973922;28;20054;-64
2022/02/03 21:44:56;;;;;;;3.30;2.45;;;-14.20;98.50;;;;;;4974787;28;20030;-64
2022/02/03 21:47:22;;;;;;;3.00;2.47;;;-14.20;97.90;;;;;;4974686;28;20042;-66
2022/02/03 21:49:48;;;;;;;3.05;2.35;;;-14.30;97.50;;;;;;4974855;28;20063;-64
2022/02/03 21:52:20;;;;;;;1.77;1.65;;;-14.30;98.00;;;;;;4974514;28;20035;-65
2022/02/03 21:54:46;;;;;;;3.08;2.35;;;-14.20;99.90;;;;;;4974718;28;20080;-65
2022/02/03 21:57:13;;;;;;;6.05;3.63;;;-9.60;99.90;;;;;;4974665;28;20055;-66
2022/02/03 21:59:39;;;;;;;6.90;3.90;;;-8.70;99.90;;;;;;4974733;28;20483;-65
2022/02/03 22:02:09;;;;;;;2.60;2.40;;;-10.00;99.90;;;;;;4974678;28;20019;-64
2022/02/03 22:04:35;;;;;;;;;;;-11.10;99.90;;;;;;4975330;28;20394;-66
2022/02/03 22:07:01;;;;;;;2.70;2.08;;;-12.00;99.90;;;;;;4974502;28;19914;-65
2022/02/03 22:09:27;;;;;;;2.67;2.00;;;-12.50;99.90;;;;;;4974491;28;20102;-64
2022/02/03 22:11:53;;;;;;;3.97;2.20;;;-12.70;99.90;;;;;;4974358;28;20058;-65
2022/02/03 22:14:18;;;;;;;3.13;2.35;;;-13.00;99.90;;;;;;4974605;28;20102;-64
2022/02/03 22:16:46;;;;;;;3.15;2.28;;;-13.20;99.90;;;;;;4968664;28;20038;-64
2022/02/03 22:19:12;;;;;;;3.53;2.55;;;-13.30;99.90;;;;;;4963701;28;20054;-64
2022/02/03 22:27:58;;;;;;;6.75;2.55;;;-13.50;99.90;;;;;;4973952;28;20046;-64
2022/02/03 22:44:25;;;;;;;6.80;3.47;;;-13.70;99.90;;;;;;4973993;28;20069;-64
2022/02/03 22:47:39;;;;;;;4.95;3.30;;;-13.60;99.90;;;;;;4974020;28;20116;-64
2022/02/03 22:49:38;;;;;;;9.05;2.72;;;-13.60;99.90;;;;;;4973021;28;20034;-64
2022/02/03 22:52:04;;;;;;;3.03;2.30;;;-13.60;99.90;;;;;;4973790;28;20031;-64
2022/02/03 22:54:30;;;;;;;5.30;2.78;;;-13.60;99.90;;;;;;4973508;28;20085;-64
2022/02/03 22:56:56;;;;;;;3.60;2.67;;;-13.70;99.90;;;;;;4973584;28;20023;-66
2022/02/03 23:01:51;;;;;;;4.13;2.80;;;-13.80;99.90;;;;;;4962627;28;20019;-66
2022/02/03 23:04:18;;;;;;;3.28;2.47;;;-13.80;99.60;;;;;;4964343;28;20439;-66
2022/02/03 23:06:43;;;;;;;4.03;2.50;;;-13.80;99.20;;;;;;4961573;28;20043;-66
2022/02/03 23:09:35;;;;;;;3.60;2.47;;;-13.90;98.10;;;;;;4954008;28;20023;-66
2022/02/03 23:15:02;;;;;;;8.25;2.50;;;-13.90;96.90;;;;;;4954495;28;20024;-66
2022/02/03 23:22:24;;;;;;;3.38;2.72;;;-14.20;95.00;;;;;;4954138;28;20495;-66
2022/02/03 23:24:52;;;;;;;3.72;2.60;;;-14.30;94.80;;;;;;4954373;28;20031;-66
2022/02/03 23:29:48;;;;;;;2.80;2.30;;;-14.40;94.20;;;;;;4954104;28;20028;-66
2022/02/03 23:32:14;;;;;;;4.10;2.80;;;-14.40;94.00;;;;;;4954139;28;20042;-66
2022/02/03 23:34:43;;;;;;;3.40;2.28;;;-14.40;93.90;;;;;;4954062;28;20027;-66
2022/02/03 23:37:08;;;;;;;3.83;2.78;;;-14.50;93.70;;;;;;4953519;28;20495;-66
